createdAt,value
2023-04-06T04:41:44.180Z,41.26
2023-04-06T04:44:14.943Z,41.17
2023-04-06T04:46:45.544Z,41.42
2023-04-06T04:49:16.096Z,41.18
2023-04-06T04:51:49.399Z,41.63
2023-04-06T04:54:20.260Z,40.95
2023-04-06T04:56:53.379Z,41.00
2023-04-06T04:59:26.750Z,40.70
2023-04-06T05:01:59.409Z,40.73
2023-04-06T05:04:31.996Z,40.33
2023-04-06T05:07:09.892Z,40.61
2023-04-06T05:09:43.229Z,40.35
2023-04-06T06:26:14.549Z,37.43
2023-04-06T06:28:47.826Z,37.60
2023-04-06T06:31:21.933Z,37.57
2023-04-06T06:33:52.718Z,38.01
2023-04-06T06:36:23.400Z,37.21
2023-04-06T06:38:56.170Z,37.36
2023-04-06T06:41:31.966Z,37.77
2023-04-06T06:44:02.524Z,36.88
2023-04-06T06:46:32.944Z,36.14
2023-04-06T06:49:04.694Z,36.79
2023-04-06T06:51:37.589Z,36.69
2023-04-06T06:54:08.693Z,36.50
2023-04-06T06:56:44.713Z,36.87
2023-04-06T06:59:17.615Z,37.15
2023-04-06T07:01:47.980Z,36.65
2023-04-06T07:04:18.408Z,36.29
2023-04-06T07:06:48.916Z,36.30
2023-04-06T07:09:19.519Z,36.09
2023-04-06T07:11:54.596Z,36.07
2023-04-06T07:14:25.199Z,35.99
2023-04-06T07:17:01.148Z,36.12
2023-04-06T07:19:32.473Z,36.12
2023-04-06T07:22:03.676Z,35.03
2023-04-06T07:24:34.168Z,35.04
2023-04-06T07:27:07.551Z,34.65
2023-04-06T07:29:39.878Z,34.47
2023-04-06T08:13:13.246Z,34.26
2023-04-06T08:19:24.946Z,35.80
2023-04-06T08:21:58.724Z,35.75
2023-04-06T08:24:29.146Z,37.95
2023-04-06T08:27:07.337Z,37.76
2023-04-06T08:29:43.000Z,38.38
2023-04-06T08:32:13.580Z,38.95
2023-04-06T08:34:46.545Z,39.94
2023-04-06T08:37:19.392Z,40.13
2023-04-06T08:40:02.013Z,39.89
2023-04-06T08:42:36.738Z,41.89
2023-04-06T08:45:13.131Z,42.09
2023-04-06T08:47:44.477Z,43.54
2023-04-06T08:50:15.516Z,45.91
2023-04-06T08:52:47.477Z,46.38
2023-04-06T08:55:18.204Z,46.94
2023-04-06T08:57:50.796Z,48.18
2023-04-06T09:00:25.357Z,48.25
2023-04-06T09:02:59.345Z,48.53
2023-04-06T09:05:32.904Z,50.79
2023-04-06T09:08:06.972Z,52.45
2023-04-06T09:10:38.171Z,53.48
2023-04-06T09:13:09.559Z,53.57
2023-04-06T09:15:44.976Z,54.46
2023-04-06T09:18:15.700Z,56.04
2023-04-06T09:20:48.548Z,56.14
2023-04-06T09:23:26.882Z,56.77
2023-04-06T09:26:10.277Z,56.44
2023-04-06T09:28:51.381Z,56.76
2023-04-06T09:31:27.145Z,58.27
2023-04-06T09:37:25.272Z,58.78
2023-04-06T09:40:06.538Z,58.10
2023-04-06T09:42:38.373Z,58.40
2023-04-06T10:15:50.834Z,59.22
2023-04-06T10:18:21.531Z,58.53
2023-04-06T10:20:55.743Z,59.01
2023-04-06T10:23:33.727Z,59.37
2023-04-06T10:26:08.463Z,59.26
2023-04-06T10:28:42.230Z,58.84
2023-04-06T10:31:16.329Z,58.41
2023-04-06T10:33:59.520Z,59.63
2023-04-06T10:36:31.067Z,59.06
2023-04-06T10:39:06.268Z,59.14
2023-04-06T10:41:38.130Z,58.31
2023-04-06T10:44:09.946Z,57.66
2023-04-06T10:46:42.993Z,58.66
2023-04-06T10:49:18.774Z,58.68
2023-04-06T10:51:49.467Z,58.03
2023-04-06T10:54:21.238Z,58.56
2023-04-06T10:56:51.617Z,58.58
2023-04-06T10:59:26.194Z,57.09
2023-04-06T11:02:02.618Z,56.81
2023-04-06T11:04:33.003Z,56.74
2023-04-06T11:07:06.800Z,56.06
2023-04-06T11:09:38.170Z,56.20
2023-04-06T11:12:09.262Z,56.56
2023-04-06T11:14:40.115Z,56.36
2023-04-06T11:17:15.449Z,57.17
2023-04-06T11:19:46.007Z,58.08
2023-04-06T11:22:17.769Z,57.33
2023-04-06T11:24:50.574Z,56.32
2023-04-06T11:27:21.939Z,56.05
2023-04-06T11:29:55.424Z,55.64
2023-04-06T11:32:28.546Z,55.82
2023-04-06T11:34:58.940Z,55.19
2023-04-06T11:37:34.172Z,55.56
2023-04-06T11:40:13.417Z,55.96
2023-04-06T11:42:43.827Z,55.88
2023-04-06T11:45:20.205Z,56.32
2023-04-06T11:48:00.602Z,56.60
2023-04-06T11:50:38.556Z,57.72
2023-04-06T11:53:09.012Z,58.98
2023-04-06T11:55:46.261Z,57.69
2023-04-06T11:58:18.542Z,58.75
2023-04-06T12:00:55.450Z,59.15
2023-04-06T12:03:28.726Z,59.44
2023-04-06T12:05:59.865Z,59.16
2023-04-06T12:08:32.922Z,59.21
2023-04-06T12:11:06.908Z,58.72
2023-04-06T12:13:37.288Z,59.14
2023-04-06T12:16:10.677Z,59.18
2023-04-06T12:18:46.511Z,59.25
2023-04-06T12:21:16.956Z,60.36
2023-04-06T12:23:47.607Z,60.70
2023-04-06T12:26:17.967Z,60.48
2023-04-06T12:28:48.501Z,59.36
2023-04-06T12:31:19.970Z,61.66
2023-04-06T12:33:54.190Z,60.15
2023-04-06T12:36:25.351Z,59.62
2023-04-06T12:38:58.247Z,59.83
2023-04-06T12:41:30.921Z,59.60
2023-04-06T12:44:03.416Z,60.13
2023-04-06T12:46:34.755Z,59.96
2023-04-06T12:49:08.448Z,59.68
2023-04-06T12:51:39.001Z,60.86
2023-04-06T12:54:11.096Z,60.25
2023-04-06T12:56:41.614Z,59.39
2023-04-06T12:59:12.694Z,58.99
2023-04-06T13:01:45.504Z,59.07
2023-04-06T13:04:18.853Z,59.99
2023-04-06T13:06:51.420Z,60.12
2023-04-06T13:09:26.788Z,60.91
2023-04-06T13:12:00.067Z,60.22
2023-04-06T13:14:30.852Z,61.32
2023-04-06T13:17:02.917Z,62.04
2023-04-06T13:19:36.084Z,62.29
2023-04-06T13:22:06.429Z,62.50
2023-04-06T13:24:36.754Z,63.20
2023-04-06T13:27:08.233Z,63.60
2023-04-06T13:29:38.827Z,64.10
2023-04-06T13:32:11.950Z,63.09
2023-04-06T13:34:49.969Z,63.81
2023-04-06T13:37:22.578Z,64.46
2023-04-06T13:39:55.641Z,62.99
2023-04-06T13:42:31.875Z,62.97
2023-04-06T13:45:03.434Z,62.91
2023-04-06T13:47:36.693Z,62.38
2023-04-06T13:50:13.444Z,62.89
2023-04-06T13:52:48.635Z,62.57
2023-04-06T13:55:20.103Z,62.58
2023-04-06T13:57:50.774Z,62.37
2023-04-06T14:00:25.007Z,62.31
2023-04-06T14:02:58.633Z,63.17
2023-04-06T14:05:36.088Z,62.64
2023-04-06T14:08:06.485Z,63.10
2023-04-06T14:10:41.683Z,63.26
2023-04-06T14:13:13.076Z,63.57
2023-04-06T14:15:43.722Z,62.47
2023-04-06T14:18:16.395Z,64.62
2023-04-06T14:20:49.331Z,64.33
2023-04-06T14:23:19.960Z,63.93
2023-04-06T14:25:50.160Z,63.89
2023-04-06T14:28:26.255Z,63.22
2023-04-06T14:30:57.210Z,63.55
2023-04-06T14:33:27.697Z,64.64
2023-04-06T14:36:00.680Z,65.03
2023-04-06T14:38:35.031Z,64.63
2023-04-06T14:41:05.418Z,64.54
2023-04-06T14:43:36.069Z,65.03
2023-04-06T14:46:11.056Z,65.04
2023-04-06T14:48:41.873Z,64.96
2023-04-06T14:51:15.323Z,65.61
2023-04-06T14:53:48.666Z,65.30
2023-04-06T14:56:24.416Z,65.63
2023-04-06T14:58:56.200Z,65.14
2023-04-06T15:01:34.164Z,65.23
2023-04-06T15:04:04.948Z,66.38
2023-04-06T15:06:41.231Z,66.46
2023-04-06T15:09:11.482Z,65.74
2023-04-06T15:11:48.021Z,66.23
2023-04-06T15:14:18.424Z,66.20
2023-04-06T15:16:54.767Z,66.13
2023-04-06T15:19:25.693Z,66.05
2023-04-06T15:22:01.112Z,66.57
2023-04-06T15:24:31.717Z,66.69
2023-04-06T15:27:05.062Z,66.86
2023-04-06T15:29:37.519Z,66.91
2023-04-06T15:32:08.016Z,67.28
2023-04-06T15:34:41.430Z,67.56
2023-04-06T15:37:19.170Z,67.60
2023-04-06T15:39:49.842Z,67.83
2023-04-06T15:42:20.201Z,67.93
2023-04-06T15:44:50.451Z,68.07
2023-04-06T15:47:20.838Z,68.04
2023-04-06T15:49:52.086Z,67.82
2023-04-06T15:52:25.091Z,68.00
2023-04-06T15:54:58.587Z,68.67
2023-04-06T15:57:31.498Z,68.71
2023-04-06T16:00:03.498Z,68.55
2023-04-06T16:02:36.355Z,68.94
2023-04-06T16:05:07.316Z,68.83
2023-04-06T16:07:40.323Z,69.20
2023-04-06T16:10:12.719Z,69.07
2023-04-06T16:12:44.125Z,69.17
2023-04-06T16:15:15.144Z,68.73
2023-04-06T16:17:46.698Z,69.28
2023-04-06T16:20:38.216Z,69.65
2023-04-06T16:23:13.985Z,69.35
2023-04-06T16:25:44.867Z,70.15
2023-04-06T16:28:15.380Z,69.86
2023-04-06T16:30:46.744Z,69.88
2023-04-06T16:33:20.132Z,69.91
2023-04-06T16:35:53.859Z,69.86
2023-04-06T16:38:34.252Z,70.31
2023-04-06T16:41:05.234Z,70.35
2023-04-06T16:43:39.019Z,70.51
2023-04-06T16:46:09.303Z,70.21
2023-04-06T16:48:39.635Z,70.34
2023-04-06T16:51:10.198Z,70.18
2023-04-06T16:53:45.514Z,70.58
2023-04-06T16:56:15.988Z,70.02
2023-04-06T16:58:52.364Z,70.11
2023-04-06T17:01:24.407Z,70.23
2023-04-06T17:03:55.326Z,70.38
2023-04-06T17:06:27.305Z,70.84
2023-04-06T17:09:00.450Z,70.99
2023-04-06T17:11:45.606Z,71.11
2023-04-06T17:14:16.758Z,71.15
2023-04-06T17:16:47.115Z,71.10
2023-04-06T17:19:19.950Z,71.28
2023-04-06T17:21:55.539Z,71.33
2023-04-06T17:24:37.538Z,71.44
2023-04-06T17:27:10.078Z,71.46
2023-04-06T17:29:43.294Z,71.65
2023-04-06T17:32:16.242Z,71.40
2023-04-06T17:34:46.854Z,71.42
2023-04-06T17:37:18.139Z,71.35
2023-04-06T17:39:54.338Z,71.52
2023-04-06T17:42:24.713Z,71.66
2023-04-06T17:44:55.551Z,72.00
2023-04-06T17:47:35.054Z,72.10
2023-04-06T17:50:05.806Z,72.37
2023-04-06T17:52:36.885Z,72.84
2023-04-06T17:55:10.631Z,72.77
2023-04-06T17:57:42.314Z,72.81
2023-04-06T18:00:16.862Z,73.13
2023-04-06T18:02:50.208Z,72.75
2023-04-06T18:05:20.965Z,72.93
2023-04-06T18:07:55.560Z,72.83
2023-04-06T18:10:32.826Z,73.28
2023-04-06T18:13:03.072Z,73.19
2023-04-06T18:15:33.619Z,73.32
2023-04-06T18:18:08.239Z,73.36
2023-04-06T18:20:43.664Z,73.19
2023-04-06T18:23:13.970Z,72.95
2023-04-06T18:25:46.850Z,73.12
2023-04-06T18:28:21.009Z,73.66
2023-04-06T18:30:54.228Z,73.81
2023-04-06T18:33:24.531Z,73.92
2023-04-06T18:35:56.751Z,73.64
2023-04-06T18:38:27.630Z,74.09
2023-04-06T18:41:07.327Z,73.83
2023-04-06T18:43:41.694Z,73.49
2023-04-06T18:46:16.218Z,73.60
2023-04-06T18:48:48.951Z,73.68
2023-04-06T18:51:19.447Z,73.61
2023-04-06T18:53:52.439Z,73.80
2023-04-06T18:56:26.100Z,73.85
2023-04-06T18:58:56.663Z,73.13
2023-04-06T19:01:31.494Z,73.49
2023-04-06T19:04:02.893Z,73.38
2023-04-06T19:06:35.809Z,73.05
2023-04-06T19:09:07.891Z,73.04
2023-04-06T19:11:41.246Z,72.37
2023-04-06T19:14:13.783Z,72.56
2023-04-06T19:16:52.514Z,72.63
2023-04-06T19:19:23.486Z,72.74
2023-04-06T19:21:54.042Z,73.00
2023-04-06T19:24:36.531Z,73.08
2023-04-06T19:27:12.390Z,72.84
2023-04-06T19:29:45.832Z,73.14
2023-04-06T19:32:18.741Z,73.12
2023-04-06T19:34:49.226Z,73.36
2023-04-06T19:37:22.538Z,73.44
2023-04-06T19:39:52.897Z,73.76
2023-04-06T19:42:26.198Z,74.05
2023-04-06T19:44:59.814Z,73.76
2023-04-06T19:47:30.229Z,73.64
2023-04-06T19:50:00.894Z,73.75
2023-04-06T19:52:32.906Z,73.72
2023-04-06T19:55:06.551Z,73.67
2023-04-06T19:57:39.834Z,73.78
2023-04-06T20:00:15.229Z,73.92
2023-04-06T20:02:45.796Z,74.06
2023-04-06T20:05:16.256Z,74.10
2023-04-06T20:07:48.536Z,74.50
2023-04-06T20:10:19.047Z,74.00
2023-04-06T20:12:53.139Z,74.24
2023-04-06T20:15:23.749Z,73.86
2023-04-06T20:17:54.655Z,74.29
2023-04-06T20:20:25.039Z,74.16
2023-04-06T20:22:55.779Z,74.75
2023-04-06T20:25:27.846Z,74.67
2023-04-06T20:28:04.127Z,74.80
2023-04-06T20:30:34.436Z,74.77
2023-04-06T20:33:04.738Z,74.31
2023-04-06T20:35:41.681Z,74.19
2023-04-06T20:38:12.046Z,74.28
2023-04-06T20:40:42.269Z,74.31
2023-04-06T20:43:17.860Z,74.40
2023-04-06T20:45:48.670Z,74.73
2023-04-06T20:48:19.406Z,74.93
2023-04-06T20:50:59.109Z,74.36
2023-04-06T20:53:29.786Z,74.56
2023-04-06T20:56:00.704Z,74.23
2023-04-06T20:58:33.720Z,74.33
2023-04-06T21:01:09.759Z,74.50
2023-04-06T21:03:43.194Z,74.71
2023-04-06T21:06:14.232Z,74.68
2023-04-06T21:08:47.549Z,74.45
2023-04-06T21:11:17.878Z,74.62
2023-04-06T21:13:51.489Z,74.92
2023-04-06T21:16:24.699Z,74.82
2023-04-06T21:18:59.706Z,74.59
2023-04-06T21:21:30.025Z,75.12
2023-04-06T21:24:02.685Z,75.05
2023-04-06T21:26:55.259Z,75.00
2023-04-06T21:29:30.813Z,74.96
2023-04-06T21:32:01.285Z,74.98
2023-04-06T21:34:31.868Z,74.67
2023-04-06T21:37:04.867Z,74.46
2023-04-06T21:39:35.165Z,74.60
2023-04-06T21:42:08.371Z,74.75
2023-04-06T21:44:41.294Z,74.91
2023-04-06T21:47:11.669Z,75.19
2023-04-06T21:49:49.636Z,74.72
2023-04-06T21:52:19.965Z,74.97
2023-04-06T21:54:53.280Z,74.91
2023-04-06T21:57:32.412Z,74.94
2023-04-06T22:00:11.098Z,75.20
2023-04-06T22:02:44.723Z,75.12
2023-04-06T22:05:18.243Z,74.94
2023-04-06T22:07:49.020Z,75.13
2023-04-06T22:10:19.992Z,74.86
2023-04-06T22:12:52.554Z,74.99
2023-04-06T22:15:25.622Z,74.90
2023-04-06T22:17:56.216Z,75.11
2023-04-06T22:20:28.021Z,74.54
2023-04-06T22:22:58.713Z,75.00
2023-04-06T22:25:29.100Z,74.44
2023-04-06T22:27:59.678Z,74.83
2023-04-06T22:30:32.604Z,75.05
2023-04-06T22:33:06.879Z,74.63
2023-04-06T22:35:39.977Z,74.32
2023-04-06T22:38:11.337Z,74.26
2023-04-06T22:40:44.165Z,74.53
2023-04-06T22:43:16.842Z,74.31
2023-04-06T22:45:49.651Z,74.41
2023-04-06T22:48:20.234Z,74.57
2023-04-06T22:50:50.641Z,74.40
2023-04-06T22:53:23.652Z,74.39
2023-04-06T22:55:53.954Z,75.03
2023-04-06T22:58:24.527Z,74.66
2023-04-06T23:00:57.650Z,74.86
2023-04-06T23:03:31.436Z,74.74
2023-04-06T23:06:03.226Z,74.87
2023-04-06T23:08:34.838Z,74.74
2023-04-06T23:11:10.616Z,74.56
2023-04-06T23:13:45.449Z,74.81
2023-04-06T23:16:18.521Z,74.37
2023-04-06T23:18:48.904Z,74.73
2023-04-06T23:21:21.480Z,74.70
2023-04-06T23:23:51.803Z,74.81
2023-04-06T23:26:22.215Z,74.76
2023-04-06T23:28:52.531Z,74.95
2023-04-06T23:31:25.812Z,75.01
2023-04-06T23:34:03.722Z,74.91
2023-04-06T23:36:34.647Z,74.71
2023-04-06T23:39:05.412Z,74.57
2023-04-06T23:41:36.309Z,74.92
2023-04-06T23:44:06.846Z,74.84
2023-04-06T23:46:41.642Z,74.52
2023-04-06T23:49:12.197Z,74.79
2023-04-06T23:51:42.633Z,74.64
2023-04-06T23:54:13.338Z,74.85
2023-04-06T23:56:44.415Z,75.24
2023-04-06T23:59:14.822Z,74.79
